sensor_id;sensor_type;location;lat;lon;timestamp;temperature;humidity
18654;DHT22;9456;47.824;16.228;2023-02-14T00:05:55;-2.40;97.20
18654;DHT22;9456;47.824;16.228;2023-02-14T00:08:27;-2.50;97.30
18654;DHT22;9456;47.824;16.228;2023-02-14T00:11:00;-2.50;97.30
18654;DHT22;9456;47.824;16.228;2023-02-14T00:16:04;-2.50;97.60
18654;DHT22;9456;47.824;16.228;2023-02-14T00:21:11;-2.60;97.60
18654;DHT22;9456;47.824;16.228;2023-02-14T00:23:49;-2.60;97.70
18654;DHT22;9456;47.824;16.228;2023-02-14T00:26:37;-2.60;97.80
18654;DHT22;9456;47.824;16.228;2023-02-14T00:29:06;-2.50;98.00
18654;DHT22;9456;47.824;16.228;2023-02-14T00:31:38;-2.40;98.20
18654;DHT22;9456;47.824;16.228;2023-02-14T00:34:08;-2.40;98.30
18654;DHT22;9456;47.824;16.228;2023-02-14T00:36:37;-2.40;98.20
18654;DHT22;9456;47.824;16.228;2023-02-14T00:49:52;-2.60;98.20
18654;DHT22;9456;47.824;16.228;2023-02-14T00:52:28;-2.60;98.30
18654;DHT22;9456;47.824;16.228;2023-02-14T00:55:04;-2.60;98.40
18654;DHT22;9456;47.824;16.228;2023-02-14T00:57:45;-2.60;98.40
18654;DHT22;9456;47.824;16.228;2023-02-14T01:08:23;-2.70;98.50
18654;DHT22;9456;47.824;16.228;2023-02-14T01:11:14;-2.70;98.50
18654;DHT22;9456;47.824;16.228;2023-02-14T01:16:13;-2.70;98.60
18654;DHT22;9456;47.824;16.228;2023-02-14T01:18:42;-2.70;98.70
18654;DHT22;9456;47.824;16.228;2023-02-14T01:21:31;-2.70;98.80
18654;DHT22;9456;47.824;16.228;2023-02-14T01:24:33;-2.70;98.80
18654;DHT22;9456;47.824;16.228;2023-02-14T01:27:03;-2.70;98.80
18654;DHT22;9456;47.824;16.228;2023-02-14T01:29:44;-2.70;98.80
18654;DHT22;9456;47.824;16.228;2023-02-14T01:32:32;-2.70;99.30
18654;DHT22;9456;47.824;16.228;2023-02-14T01:37:47;-2.70;99.10
18654;DHT22;9456;47.824;16.228;2023-02-14T01:43:26;-2.60;99.20
18654;DHT22;9456;47.824;16.228;2023-02-14T01:46:14;-2.60;99.20
18654;DHT22;9456;47.824;16.228;2023-02-14T01:48:45;-2.50;99.50
18654;DHT22;9456;47.824;16.228;2023-02-14T01:53:59;-2.50;99.50
18654;DHT22;9456;47.824;16.228;2023-02-14T01:56:48;-2.50;99.40
18654;DHT22;9456;47.824;16.228;2023-02-14T01:59:36;-2.50;99.60
18654;DHT22;9456;47.824;16.228;2023-02-14T02:02:06;-2.50;99.50
18654;DHT22;9456;47.824;16.228;2023-02-14T02:07:04;-2.50;99.50
18654;DHT22;9456;47.824;16.228;2023-02-14T02:14:34;-2.60;99.70
18654;DHT22;9456;47.824;16.228;2023-02-14T02:42:02;-2.70;99.80
18654;DHT22;9456;47.824;16.228;2023-02-14T02:47:06;-2.80;99.70
18654;DHT22;9456;47.824;16.228;2023-02-14T02:59:09;-2.70;99.90
18654;DHT22;9456;47.824;16.228;2023-02-14T03:02:03;-2.70;99.90
18654;DHT22;9456;47.824;16.228;2023-02-14T03:04:38;-2.60;99.90
18654;DHT22;9456;47.824;16.228;2023-02-14T03:09:59;-2.40;99.90
18654;DHT22;9456;47.824;16.228;2023-02-14T03:16:09;-2.40;99.90
18654;DHT22;9456;47.824;16.228;2023-02-14T03:18:47;-2.30;99.90
18654;DHT22;9456;47.824;16.228;2023-02-14T03:21:53;-2.30;99.90
18654;DHT22;9456;47.824;16.228;2023-02-14T03:24:54;-2.30;99.90
18654;DHT22;9456;47.824;16.228;2023-02-14T03:34:22;-2.30;99.90
18654;DHT22;9456;47.824;16.228;2023-02-14T03:40:15;-2.40;99.90
18654;DHT22;9456;47.824;16.228;2023-02-14T03:45:57;-2.50;99.90
18654;DHT22;9456;47.824;16.228;2023-02-14T03:51:01;-2.60;99.90
18654;DHT22;9456;47.824;16.228;2023-02-14T03:53:34;-2.60;99.90
18654;DHT22;9456;47.824;16.228;2023-02-14T03:56:05;-2.60;99.90
18654;DHT22;9456;47.824;16.228;2023-02-14T03:58:38;-2.70;99.90
18654;DHT22;9456;47.824;16.228;2023-02-14T04:01:26;-2.70;99.90
18654;DHT22;9456;47.824;16.228;2023-02-14T04:03:54;-2.70;99.90
18654;DHT22;9456;47.824;16.228;2023-02-14T04:06:24;-2.80;99.90
18654;DHT22;9456;47.824;16.228;2023-02-14T04:08:53;-2.80;99.90
18654;DHT22;9456;47.824;16.228;2023-02-14T04:14:28;-2.90;99.90
18654;DHT22;9456;47.824;16.228;2023-02-14T04:19:45;-3.00;99.90
18654;DHT22;9456;47.824;16.228;2023-02-14T04:22:23;-3.00;99.80
18654;DHT22;9456;47.824;16.228;2023-02-14T04:27:21;-3.10;99.80
18654;DHT22;9456;47.824;16.228;2023-02-14T04:30:14;-3.20;99.80
18654;DHT22;9456;47.824;16.228;2023-02-14T04:32:52;-3.20;99.80
18654;DHT22;9456;47.824;16.228;2023-02-14T04:35:21;-3.30;99.80
18654;DHT22;9456;47.824;16.228;2023-02-14T04:40:57;-3.30;99.80
18654;DHT22;9456;47.824;16.228;2023-02-14T04:43:37;-3.30;99.70
18654;DHT22;9456;47.824;16.228;2023-02-14T04:46:13;-3.40;99.80
18654;DHT22;9456;47.824;16.228;2023-02-14T04:49:00;-3.40;99.80
18654;DHT22;9456;47.824;16.228;2023-02-14T04:51:30;-3.40;99.70
18654;DHT22;9456;47.824;16.228;2023-02-14T04:56:32;-3.50;99.70
18654;DHT22;9456;47.824;16.228;2023-02-14T04:59:21;-3.40;99.90
18654;DHT22;9456;47.824;16.228;2023-02-14T05:04:42;-3.50;99.90
18654;DHT22;9456;47.824;16.228;2023-02-14T05:07:30;-3.50;99.80
18654;DHT22;9456;47.824;16.228;2023-02-14T05:10:00;-3.50;99.80
18654;DHT22;9456;47.824;16.228;2023-02-14T05:12:30;-3.60;99.80
18654;DHT22;9456;47.824;16.228;2023-02-14T05:15:13;-3.60;99.90
18654;DHT22;9456;47.824;16.228;2023-02-14T05:17:51;-3.60;99.90
18654;DHT22;9456;47.824;16.228;2023-02-14T05:22:56;-3.60;99.90
18654;DHT22;9456;47.824;16.228;2023-02-14T05:25:46;-3.60;99.90
18654;DHT22;9456;47.824;16.228;2023-02-14T05:28:18;-3.60;99.90
18654;DHT22;9456;47.824;16.228;2023-02-14T05:33:59;-3.70;99.90
18654;DHT22;9456;47.824;16.228;2023-02-14T05:42:28;-3.60;99.90
18654;DHT22;9456;47.824;16.228;2023-02-14T05:44:58;-3.60;99.90
18654;DHT22;9456;47.824;16.228;2023-02-14T05:49:56;-3.60;99.90
18654;DHT22;9456;47.824;16.228;2023-02-14T05:55:21;-3.50;99.90
18654;DHT22;9456;47.824;16.228;2023-02-14T05:57:50;-3.50;99.90
18654;DHT22;9456;47.824;16.228;2023-02-14T06:00:23;-3.40;99.90
18654;DHT22;9456;47.824;16.228;2023-02-14T06:02:54;-3.30;99.90
18654;DHT22;9456;47.824;16.228;2023-02-14T06:05:41;-3.30;99.90
18654;DHT22;9456;47.824;16.228;2023-02-14T06:08:11;-3.30;99.90
18654;DHT22;9456;47.824;16.228;2023-02-14T06:11:03;-3.30;99.90
18654;DHT22;9456;47.824;16.228;2023-02-14T06:16:06;-3.20;99.90
18654;DHT22;9456;47.824;16.228;2023-02-14T06:21:54;-3.10;99.90
18654;DHT22;9456;47.824;16.228;2023-02-14T06:24:27;-3.00;99.90
18654;DHT22;9456;47.824;16.228;2023-02-14T06:27:01;-2.90;99.90
18654;DHT22;9456;47.824;16.228;2023-02-14T06:29:33;-2.80;99.90
18654;DHT22;9456;47.824;16.228;2023-02-14T06:32:03;-2.80;99.90
18654;DHT22;9456;47.824;16.228;2023-02-14T06:37:00;-2.50;99.90
18654;DHT22;9456;47.824;16.228;2023-02-14T06:39:31;-2.10;99.90
18654;DHT22;9456;47.824;16.228;2023-02-14T06:42:00;-1.60;99.90
18654;DHT22;9456;47.824;16.228;2023-02-14T06:44:29;-1.00;99.90
18654;DHT22;9456;47.824;16.228;2023-02-14T06:46:58;-0.50;99.90
18654;DHT22;9456;47.824;16.228;2023-02-14T06:49:27;-0.10;99.90
18654;DHT22;9456;47.824;16.228;2023-02-14T06:51:56;0.40;98.90
18654;DHT22;9456;47.824;16.228;2023-02-14T06:54:25;0.60;95.50
18654;DHT22;9456;47.824;16.228;2023-02-14T06:56:58;0.60;93.70
18654;DHT22;9456;47.824;16.228;2023-02-14T06:59:27;0.90;92.80
18654;DHT22;9456;47.824;16.228;2023-02-14T07:01:58;1.00;91.70
18654;DHT22;9456;47.824;16.228;2023-02-14T07:07:52;1.40;91.30
18654;DHT22;9456;47.824;16.228;2023-02-14T07:10:24;2.00;89.20
18654;DHT22;9456;47.824;16.228;2023-02-14T07:12:58;2.50;85.80
18654;DHT22;9456;47.824;16.228;2023-02-14T07:15:28;2.90;83.30
18654;DHT22;9456;47.824;16.228;2023-02-14T07:17:57;3.20;83.20
18654;DHT22;9456;47.824;16.228;2023-02-14T07:20:26;3.40;80.60
18654;DHT22;9456;47.824;16.228;2023-02-14T07:22:56;3.90;81.20
18654;DHT22;9456;47.824;16.228;2023-02-14T07:25:27;4.40;76.80
18654;DHT22;9456;47.824;16.228;2023-02-14T07:27:56;5.00;74.70
18654;DHT22;9456;47.824;16.228;2023-02-14T07:30:25;5.40;71.90
18654;DHT22;9456;47.824;16.228;2023-02-14T07:32:54;5.70;70.30
18654;DHT22;9456;47.824;16.228;2023-02-14T07:35:25;6.10;67.90
18654;DHT22;9456;47.824;16.228;2023-02-14T07:37:54;5.90;67.50
18654;DHT22;9456;47.824;16.228;2023-02-14T07:40:23;5.90;68.10
18654;DHT22;9456;47.824;16.228;2023-02-14T07:42:56;6.50;67.40
18654;DHT22;9456;47.824;16.228;2023-02-14T07:45:24;6.70;64.60
18654;DHT22;9456;47.824;16.228;2023-02-14T07:47:53;7.20;64.40
18654;DHT22;9456;47.824;16.228;2023-02-14T07:50:22;7.50;63.60
18654;DHT22;9456;47.824;16.228;2023-02-14T07:52:51;7.90;62.60
18654;DHT22;9456;47.824;16.228;2023-02-14T07:55:20;8.20;59.90
18654;DHT22;9456;47.824;16.228;2023-02-14T07:57:50;8.60;59.10
18654;DHT22;9456;47.824;16.228;2023-02-14T08:00:21;8.90;59.00
18654;DHT22;9456;47.824;16.228;2023-02-14T08:02:50;9.10;58.30
18654;DHT22;9456;47.824;16.228;2023-02-14T08:05:19;9.50;57.60
18654;DHT22;9456;47.824;16.228;2023-02-14T08:07:48;9.80;56.20
18654;DHT22;9456;47.824;16.228;2023-02-14T08:10:18;9.60;56.60
18654;DHT22;9456;47.824;16.228;2023-02-14T08:12:47;9.60;57.80
18654;DHT22;9456;47.824;16.228;2023-02-14T08:24:19;10.10;55.00
18654;DHT22;9456;47.824;16.228;2023-02-14T08:26:48;9.80;57.40
18654;DHT22;9456;47.824;16.228;2023-02-14T08:29:17;10.10;56.30
18654;DHT22;9456;47.824;16.228;2023-02-14T08:31:49;10.40;56.20
18654;DHT22;9456;47.824;16.228;2023-02-14T08:37:23;11.00;54.60
18654;DHT22;9456;47.824;16.228;2023-02-14T08:39:53;10.50;54.90
18654;DHT22;9456;47.824;16.228;2023-02-14T08:42:23;10.10;56.20
18654;DHT22;9456;47.824;16.228;2023-02-14T08:44:55;9.70;57.80
18654;DHT22;9456;47.824;16.228;2023-02-14T08:47:24;9.60;58.80
18654;DHT22;9456;47.824;16.228;2023-02-14T08:49:53;10.10;57.60
18654;DHT22;9456;47.824;16.228;2023-02-14T08:52:25;10.60;56.10
18654;DHT22;9456;47.824;16.228;2023-02-14T08:54:54;10.40;56.50
18654;DHT22;9456;47.824;16.228;2023-02-14T08:57:23;10.30;56.70
18654;DHT22;9456;47.824;16.228;2023-02-14T09:00:05;10.40;56.80
18654;DHT22;9456;47.824;16.228;2023-02-14T09:02:35;10.60;57.10
18654;DHT22;9456;47.824;16.228;2023-02-14T09:05:12;11.50;55.30
18654;DHT22;9456;47.824;16.228;2023-02-14T09:07:41;12.40;52.80
18654;DHT22;9456;47.824;16.228;2023-02-14T09:10:16;13.30;50.70
18654;DHT22;9456;47.824;16.228;2023-02-14T09:12:46;13.10;51.00
18654;DHT22;9456;47.824;16.228;2023-02-14T09:23:21;12.70;51.10
18654;DHT22;9456;47.824;16.228;2023-02-14T09:25:51;12.10;52.50
18654;DHT22;9456;47.824;16.228;2023-02-14T09:28:19;11.40;54.10
18654;DHT22;9456;47.824;16.228;2023-02-14T09:30:48;10.80;55.70
18654;DHT22;9456;47.824;16.228;2023-02-14T09:33:46;10.00;58.00
18654;DHT22;9456;47.824;16.228;2023-02-14T09:36:15;9.50;61.00
18654;DHT22;9456;47.824;16.228;2023-02-14T09:44:51;9.30;63.20
18654;DHT22;9456;47.824;16.228;2023-02-14T09:47:21;8.90;65.50
18654;DHT22;9456;47.824;16.228;2023-02-14T09:49:49;8.60;67.10
18654;DHT22;9456;47.824;16.228;2023-02-14T09:52:19;8.20;68.60
18654;DHT22;9456;47.824;16.228;2023-02-14T09:54:47;7.70;70.80
18654;DHT22;9456;47.824;16.228;2023-02-14T09:57:18;7.40;72.90
18654;DHT22;9456;47.824;16.228;2023-02-14T10:00:10;7.20;74.40
18654;DHT22;9456;47.824;16.228;2023-02-14T10:02:40;7.20;75.50
18654;DHT22;9456;47.824;16.228;2023-02-14T10:05:10;7.00;76.60
18654;DHT22;9456;47.824;16.228;2023-02-14T10:07:46;6.80;78.20
18654;DHT22;9456;47.824;16.228;2023-02-14T10:10:15;6.80;78.80
18654;DHT22;9456;47.824;16.228;2023-02-14T10:12:44;6.80;79.10
18654;DHT22;9456;47.824;16.228;2023-02-14T10:15:19;6.90;78.70
18654;DHT22;9456;47.824;16.228;2023-02-14T10:23:52;6.60;80.30
18654;DHT22;9456;47.824;16.228;2023-02-14T10:26:20;6.60;80.80
18654;DHT22;9456;47.824;16.228;2023-02-14T10:28:49;6.50;80.50
18654;DHT22;9456;47.824;16.228;2023-02-14T10:31:20;6.40;81.10
18654;DHT22;9456;47.824;16.228;2023-02-14T10:42:15;6.20;82.80
18654;DHT22;9456;47.824;16.228;2023-02-14T10:44:46;6.30;82.50
18654;DHT22;9456;47.824;16.228;2023-02-14T10:50:15;6.30;82.90
18654;DHT22;9456;47.824;16.228;2023-02-14T10:56:06;6.60;82.00
18654;DHT22;9456;47.824;16.228;2023-02-14T10:58:35;6.80;80.50
18654;DHT22;9456;47.824;16.228;2023-02-14T11:01:06;6.80;80.30
18654;DHT22;9456;47.824;16.228;2023-02-14T11:03:54;6.80;79.50
18654;DHT22;9456;47.824;16.228;2023-02-14T11:09:02;6.70;80.00
18654;DHT22;9456;47.824;16.228;2023-02-14T11:15:24;6.80;80.00
18654;DHT22;9456;47.824;16.228;2023-02-14T11:18:20;7.00;79.30
18654;DHT22;9456;47.824;16.228;2023-02-14T11:21:24;7.20;77.80
18654;DHT22;9456;47.824;16.228;2023-02-14T11:24:18;7.10;77.60
18654;DHT22;9456;47.824;16.228;2023-02-14T11:26:52;7.10;78.40
18654;DHT22;9456;47.824;16.228;2023-02-14T11:29:24;7.00;78.30
18654;DHT22;9456;47.824;16.228;2023-02-14T11:32:09;7.00;79.60
18654;DHT22;9456;47.824;16.228;2023-02-14T11:34:50;6.90;78.80
18654;DHT22;9456;47.824;16.228;2023-02-14T11:37:29;7.10;78.30
18654;DHT22;9456;47.824;16.228;2023-02-14T11:39:57;7.10;78.00
18654;DHT22;9456;47.824;16.228;2023-02-14T11:47:49;7.10;77.10
18654;DHT22;9456;47.824;16.228;2023-02-14T11:53:21;6.90;78.70
18654;DHT22;9456;47.824;16.228;2023-02-14T11:58:55;6.70;80.60
18654;DHT22;9456;47.824;16.228;2023-02-14T12:01:42;6.70;81.40
18654;DHT22;9456;47.824;16.228;2023-02-14T12:04:15;6.70;81.40
18654;DHT22;9456;47.824;16.228;2023-02-14T12:06:43;6.60;81.40
18654;DHT22;9456;47.824;16.228;2023-02-14T12:09:15;6.60;81.60
18654;DHT22;9456;47.824;16.228;2023-02-14T12:11:51;6.50;81.60
18654;DHT22;9456;47.824;16.228;2023-02-14T12:14:22;6.50;82.50
18654;DHT22;9456;47.824;16.228;2023-02-14T12:16:54;6.50;82.40
18654;DHT22;9456;47.824;16.228;2023-02-14T12:21:54;6.30;83.10
18654;DHT22;9456;47.824;16.228;2023-02-14T12:24:28;6.40;83.00
18654;DHT22;9456;47.824;16.228;2023-02-14T12:27:00;6.40;83.00
18654;DHT22;9456;47.824;16.228;2023-02-14T12:29:29;6.50;82.20
18654;DHT22;9456;47.824;16.228;2023-02-14T12:34:27;6.40;82.30
18654;DHT22;9456;47.824;16.228;2023-02-14T12:37:30;6.30;83.10
18654;DHT22;9456;47.824;16.228;2023-02-14T12:40:11;6.30;82.40
18654;DHT22;9456;47.824;16.228;2023-02-14T12:43:14;6.40;82.70
18654;DHT22;9456;47.824;16.228;2023-02-14T12:48:14;6.50;81.40
18654;DHT22;9456;47.824;16.228;2023-02-14T12:50:44;6.40;81.60
18654;DHT22;9456;47.824;16.228;2023-02-14T12:55:46;6.40;82.00
18654;DHT22;9456;47.824;16.228;2023-02-14T13:07:12;6.40;81.80
18654;DHT22;9456;47.824;16.228;2023-02-14T13:09:43;6.40;81.60
18654;DHT22;9456;47.824;16.228;2023-02-14T13:12:17;6.30;81.80
18654;DHT22;9456;47.824;16.228;2023-02-14T13:14:51;6.20;82.10
18654;DHT22;9456;47.824;16.228;2023-02-14T13:17:24;6.10;82.70
18654;DHT22;9456;47.824;16.228;2023-02-14T13:19:53;6.00;83.00
18654;DHT22;9456;47.824;16.228;2023-02-14T13:22:22;6.00;83.10
18654;DHT22;9456;47.824;16.228;2023-02-14T13:24:51;5.90;83.30
18654;DHT22;9456;47.824;16.228;2023-02-14T13:29:55;5.80;84.30
18654;DHT22;9456;47.824;16.228;2023-02-14T13:32:42;5.80;84.00
18654;DHT22;9456;47.824;16.228;2023-02-14T13:35:24;5.80;84.30
18654;DHT22;9456;47.824;16.228;2023-02-14T13:38:14;5.80;84.10
18654;DHT22;9456;47.824;16.228;2023-02-14T13:40:43;5.70;84.50
18654;DHT22;9456;47.824;16.228;2023-02-14T13:46:19;5.60;85.00
18654;DHT22;9456;47.824;16.228;2023-02-14T13:48:57;5.60;84.50
18654;DHT22;9456;47.824;16.228;2023-02-14T13:54:44;5.60;85.10
18654;DHT22;9456;47.824;16.228;2023-02-14T13:57:30;5.50;85.40
18654;DHT22;9456;47.824;16.228;2023-02-14T14:03:55;5.50;85.40
18654;DHT22;9456;47.824;16.228;2023-02-14T14:10:14;5.60;84.90
18654;DHT22;9456;47.824;16.228;2023-02-14T14:12:47;5.60;84.50
18654;DHT22;9456;47.824;16.228;2023-02-14T14:15:17;5.60;84.90
18654;DHT22;9456;47.824;16.228;2023-02-14T14:17:49;5.60;84.20
18654;DHT22;9456;47.824;16.228;2023-02-14T14:20:45;5.60;84.20
18654;DHT22;9456;47.824;16.228;2023-02-14T14:23:32;5.60;84.20
18654;DHT22;9456;47.824;16.228;2023-02-14T14:29:34;5.70;84.00
18654;DHT22;9456;47.824;16.228;2023-02-14T14:34:34;5.80;83.30
18654;DHT22;9456;47.824;16.228;2023-02-14T14:40:38;5.90;82.80
18654;DHT22;9456;47.824;16.228;2023-02-14T14:49:20;5.90;82.40
18654;DHT22;9456;47.824;16.228;2023-02-14T14:51:49;5.90;82.40
18654;DHT22;9456;47.824;16.228;2023-02-14T14:54:18;5.90;83.00
18654;DHT22;9456;47.824;16.228;2023-02-14T14:59:47;5.80;82.60
18654;DHT22;9456;47.824;16.228;2023-02-14T15:02:23;5.80;82.90
18654;DHT22;9456;47.824;16.228;2023-02-14T15:04:52;5.80;83.10
18654;DHT22;9456;47.824;16.228;2023-02-14T15:15:19;5.70;83.70
18654;DHT22;9456;47.824;16.228;2023-02-14T15:20:43;5.60;83.70
18654;DHT22;9456;47.824;16.228;2023-02-14T15:23:30;5.60;84.10
18654;DHT22;9456;47.824;16.228;2023-02-14T15:31:36;5.50;84.60
18654;DHT22;9456;47.824;16.228;2023-02-14T15:36:37;5.30;85.00
18654;DHT22;9456;47.824;16.228;2023-02-14T15:39:07;5.30;85.40
18654;DHT22;9456;47.824;16.228;2023-02-14T15:51:22;5.20;86.00
18654;DHT22;9456;47.824;16.228;2023-02-14T15:53:57;5.10;86.50
18654;DHT22;9456;47.824;16.228;2023-02-14T15:56:27;5.10;86.40
18654;DHT22;9456;47.824;16.228;2023-02-14T16:12:34;5.00;87.50
18654;DHT22;9456;47.824;16.228;2023-02-14T16:15:21;4.90;88.20
18654;DHT22;9456;47.824;16.228;2023-02-14T16:23:28;5.20;86.50
18654;DHT22;9456;47.824;16.228;2023-02-14T16:26:17;5.10;86.50
18654;DHT22;9456;47.824;16.228;2023-02-14T16:31:23;4.90;87.30
18654;DHT22;9456;47.824;16.228;2023-02-14T16:34:11;4.80;87.30
18654;DHT22;9456;47.824;16.228;2023-02-14T16:36:40;4.80;88.30
18654;DHT22;9456;47.824;16.228;2023-02-14T16:39:40;4.80;87.80
18654;DHT22;9456;47.824;16.228;2023-02-14T16:42:16;4.80;87.90
18654;DHT22;9456;47.824;16.228;2023-02-14T16:44:46;4.70;87.70
18654;DHT22;9456;47.824;16.228;2023-02-14T16:47:17;4.70;87.70
18654;DHT22;9456;47.824;16.228;2023-02-14T16:49:48;4.70;87.70
18654;DHT22;9456;47.824;16.228;2023-02-14T16:52:19;4.60;87.60
18654;DHT22;9456;47.824;16.228;2023-02-14T16:54:47;4.60;87.60
18654;DHT22;9456;47.824;16.228;2023-02-14T16:57:20;4.60;87.80
18654;DHT22;9456;47.824;16.228;2023-02-14T16:59:51;4.60;87.80
18654;DHT22;9456;47.824;16.228;2023-02-14T17:02:21;4.50;88.00
18654;DHT22;9456;47.824;16.228;2023-02-14T17:04:56;4.50;87.90
18654;DHT22;9456;47.824;16.228;2023-02-14T17:07:28;4.50;88.00
18654;DHT22;9456;47.824;16.228;2023-02-14T17:12:46;4.50;88.00
18654;DHT22;9456;47.824;16.228;2023-02-14T17:15:17;4.40;88.10
18654;DHT22;9456;47.824;16.228;2023-02-14T17:17:53;4.40;88.20
18654;DHT22;9456;47.824;16.228;2023-02-14T17:20:39;4.40;88.30
18654;DHT22;9456;47.824;16.228;2023-02-14T17:23:08;4.30;88.30
18654;DHT22;9456;47.824;16.228;2023-02-14T17:25:41;4.40;89.50
18654;DHT22;9456;47.824;16.228;2023-02-14T17:28:13;4.40;88.40
18654;DHT22;9456;47.824;16.228;2023-02-14T17:33:38;4.30;88.20
18654;DHT22;9456;47.824;16.228;2023-02-14T17:45:17;4.20;88.70
